sensor_id;sensor_type;location;lat;lon;timestamp;pressure;altitude;pressure_sealevel;temperature;humidity
2036;BME280;23642;42.658;23.350;2023-02-15T00:01:59;53089.75;;;-146.31;83.36
2036;BME280;23642;42.658;23.350;2023-02-15T00:04:26;53085.63;;;-146.31;83.69
2036;BME280;23642;42.658;23.350;2023-02-15T00:07:14;53073.25;;;-146.31;83.94
2036;BME280;23642;42.658;23.350;2023-02-15T00:09:41;53056.75;;;-146.31;83.86
2036;BME280;23642;42.658;23.350;2023-02-15T00:12:09;53023.72;;;-146.31;84.08
2036;BME280;23642;42.658;23.350;2023-02-15T00:14:35;53015.47;;;-146.31;84.04
2036;BME280;23642;42.658;23.350;2023-02-15T00:17:05;53015.47;;;-146.31;84.83
2036;BME280;23642;42.658;23.350;2023-02-15T00:19:31;53017.53;;;-146.31;84.88
2036;BME280;23642;42.658;23.350;2023-02-15T00:21:58;53007.22;;;-146.31;84.49
2036;BME280;23642;42.658;23.350;2023-02-15T00:24:26;52990.69;;;-146.31;85.01
2036;BME280;23642;42.658;23.350;2023-02-15T00:26:53;52968.00;;;-146.31;84.36
2036;BME280;23642;42.658;23.350;2023-02-15T00:29:20;52953.53;;;-146.31;84.25
2036;BME280;23642;42.658;23.350;2023-02-15T00:31:47;52959.72;;;-146.31;84.07
2036;BME280;23642;42.658;23.350;2023-02-15T00:34:16;52961.81;;;-146.31;84.24
2036;BME280;23642;42.658;23.350;2023-02-15T00:36:44;52949.41;;;-146.31;84.04
2036;BME280;23642;42.658;23.350;2023-02-15T00:39:11;52953.53;;;-146.31;84.07
2036;BME280;23642;42.658;23.350;2023-02-15T00:41:39;52920.53;;;-146.31;84.19
2036;BME280;23642;42.658;23.350;2023-02-15T00:44:06;52926.72;;;-146.31;84.38
2036;BME280;23642;42.658;23.350;2023-02-15T00:46:33;52918.47;;;-146.31;83.94
2036;BME280;23642;42.658;23.350;2023-02-15T00:49:01;52920.53;;;-146.31;84.03
2036;BME280;23642;42.658;23.350;2023-02-15T00:51:28;52908.13;;;-146.31;84.09
2036;BME280;23642;42.658;23.350;2023-02-15T00:53:55;52893.69;;;-146.31;84.45
2036;BME280;23642;42.658;23.350;2023-02-15T00:56:22;52916.41;;;-146.31;84.11
2036;BME280;23642;42.658;23.350;2023-02-15T00:58:50;52914.31;;;-146.31;84.77
2036;BME280;23642;42.658;23.350;2023-02-15T01:01:18;52891.63;;;-146.31;84.64
2036;BME280;23642;42.658;23.350;2023-02-15T01:03:46;52883.38;;;-146.31;84.69
2036;BME280;23642;42.658;23.350;2023-02-15T01:06:14;52887.50;;;-146.31;84.66
2036;BME280;23642;42.658;23.350;2023-02-15T01:08:41;52871.00;;;-146.31;84.38
2036;BME280;23642;42.658;23.350;2023-02-15T01:11:09;52877.19;;;-146.31;84.46
2036;BME280;23642;42.658;23.350;2023-02-15T01:13:36;52850.34;;;-146.31;84.02
2036;BME280;23642;42.658;23.350;2023-02-15T01:16:05;52837.97;;;-146.31;84.06
2036;BME280;23642;42.658;23.350;2023-02-15T01:18:32;52875.13;;;-146.31;83.86
2036;BME280;23642;42.658;23.350;2023-02-15T01:20:59;52862.72;;;-146.31;84.38
2036;BME280;23642;42.658;23.350;2023-02-15T01:23:26;52844.16;;;-146.31;84.43
2036;BME280;23642;42.658;23.350;2023-02-15T01:25:53;52817.31;;;-146.31;84.68
2036;BME280;23642;42.658;23.350;2023-02-15T01:28:19;52817.31;;;-146.31;84.79
2036;BME280;23642;42.658;23.350;2023-02-15T01:30:46;52809.06;;;-146.31;84.62
2036;BME280;23642;42.658;23.350;2023-02-15T01:33:14;52800.81;;;-146.31;85.64
2036;BME280;23642;42.658;23.350;2023-02-15T01:35:44;52778.13;;;-146.31;85.57
2036;BME280;23642;42.658;23.350;2023-02-15T01:38:12;52780.19;;;-146.31;85.42
2036;BME280;23642;42.658;23.350;2023-02-15T01:40:39;52765.72;;;-146.31;85.64
2036;BME280;23642;42.658;23.350;2023-02-15T01:43:09;52761.59;;;-146.31;86.34
2036;BME280;23642;42.658;23.350;2023-02-15T01:45:38;52730.66;;;-146.31;86.14
2036;BME280;23642;42.658;23.350;2023-02-15T01:48:06;52699.69;;;-146.31;86.92
2036;BME280;23642;42.658;23.350;2023-02-15T01:50:43;52695.56;;;-146.31;86.94
2036;BME280;23642;42.658;23.350;2023-02-15T01:53:14;52683.19;;;-146.31;86.54
2036;BME280;23642;42.658;23.350;2023-02-15T01:55:46;52654.28;;;-146.31;86.36
2036;BME280;23642;42.658;23.350;2023-02-15T01:58:14;52643.97;;;-146.31;86.72
2036;BME280;23642;42.658;23.350;2023-02-15T02:00:41;52633.66;;;-146.31;87.29
2036;BME280;23642;42.658;23.350;2023-02-15T02:03:08;52619.19;;;-146.31;87.39
2036;BME280;23642;42.658;23.350;2023-02-15T02:05:35;52617.13;;;-146.31;87.10
2036;BME280;23642;42.658;23.350;2023-02-15T02:08:05;52602.69;;;-146.31;87.35
2036;BME280;23642;42.658;23.350;2023-02-15T02:10:33;52588.25;;;-146.31;87.27
2036;BME280;23642;42.658;23.350;2023-02-15T02:13:02;52544.91;;;-146.31;87.64
2036;BME280;23642;42.658;23.350;2023-02-15T02:15:43;52540.78;;;-146.31;87.98
2036;BME280;23642;42.658;23.350;2023-02-15T02:18:28;52497.44;;;-146.31;89.05
2036;BME280;23642;42.658;23.350;2023-02-15T02:24:22;52367.44;;;-146.31;90.42
2036;BME280;23642;42.658;23.350;2023-02-15T02:27:18;52322.03;;;-146.31;90.30
2036;BME280;23642;42.658;23.350;2023-02-15T02:30:20;52309.66;;;-146.31;90.01
2036;BME280;23642;42.658;23.350;2023-02-15T02:33:18;52322.03;;;-146.31;89.69
2036;BME280;23642;42.658;23.350;2023-02-15T02:35:54;52338.56;;;-146.31;89.20
2036;BME280;23642;42.658;23.350;2023-02-15T02:38:28;52309.66;;;-146.31;88.94
2036;BME280;23642;42.658;23.350;2023-02-15T02:41:06;52326.16;;;-146.31;89.14
2036;BME280;23642;42.658;23.350;2023-02-15T02:43:38;52326.16;;;-146.31;88.71
2036;BME280;23642;42.658;23.350;2023-02-15T02:46:14;52342.69;;;-146.31;88.24
2036;BME280;23642;42.658;23.350;2023-02-15T02:48:45;52365.38;;;-146.31;87.19
2036;BME280;23642;42.658;23.350;2023-02-15T02:51:12;52359.19;;;-146.31;87.24
2036;BME280;23642;42.658;23.350;2023-02-15T02:53:39;52359.19;;;-146.31;87.33
2036;BME280;23642;42.658;23.350;2023-02-15T02:56:13;52375.69;;;-146.31;87.20
2036;BME280;23642;42.658;23.350;2023-02-15T02:58:47;52381.88;;;-146.31;86.31
2036;BME280;23642;42.658;23.350;2023-02-15T03:01:19;52383.94;;;-146.31;86.32
2036;BME280;23642;42.658;23.350;2023-02-15T03:03:52;52383.94;;;-146.31;86.07
2036;BME280;23642;42.658;23.350;2023-02-15T03:06:25;52406.66;;;-146.31;86.08
2036;BME280;23642;42.658;23.350;2023-02-15T03:08:56;52408.72;;;-146.31;85.53
2036;BME280;23642;42.658;23.350;2023-02-15T03:11:24;52383.94;;;-146.31;86.09
2036;BME280;23642;42.658;23.350;2023-02-15T03:13:51;52410.78;;;-146.31;85.72
2036;BME280;23642;42.658;23.350;2023-02-15T03:16:19;52390.13;;;-146.31;86.07
2036;BME280;23642;42.658;23.350;2023-02-15T03:18:57;52423.16;;;-146.31;85.46
2036;BME280;23642;42.658;23.350;2023-02-15T03:21:33;52412.84;;;-146.31;85.84
2036;BME280;23642;42.658;23.350;2023-02-15T03:24:13;52392.19;;;-146.31;85.41
2036;BME280;23642;42.658;23.350;2023-02-15T03:26:43;52381.88;;;-146.31;85.69
2036;BME280;23642;42.658;23.350;2023-02-15T03:29:13;52383.94;;;-146.31;85.20
2036;BME280;23642;42.658;23.350;2023-02-15T03:31:44;52375.69;;;-146.31;85.57
2036;BME280;23642;42.658;23.350;2023-02-15T03:34:15;52394.25;;;-146.31;85.54
2036;BME280;23642;42.658;23.350;2023-02-15T03:36:45;52396.31;;;-146.31;85.55
2036;BME280;23642;42.658;23.350;2023-02-15T03:39:18;52383.94;;;-146.31;85.02
2036;BME280;23642;42.658;23.350;2023-02-15T03:41:53;52390.13;;;-146.31;85.45
2036;BME280;23642;42.658;23.350;2023-02-15T03:44:27;52400.47;;;-146.31;84.81
2036;BME280;23642;42.658;23.350;2023-02-15T03:47:00;52390.13;;;-146.31;85.27
2036;BME280;23642;42.658;23.350;2023-02-15T03:49:37;52414.91;;;-146.31;85.43
2036;BME280;23642;42.658;23.350;2023-02-15T03:52:12;52375.69;;;-146.31;85.41
2036;BME280;23642;42.658;23.350;2023-02-15T03:54:42;52400.47;;;-146.31;85.00
2036;BME280;23642;42.658;23.350;2023-02-15T03:57:14;52388.06;;;-146.31;85.22
2036;BME280;23642;42.658;23.350;2023-02-15T03:59:59;52377.75;;;-146.31;84.57
2036;BME280;23642;42.658;23.350;2023-02-15T04:02:52;52375.69;;;-146.31;85.22
2036;BME280;23642;42.658;23.350;2023-02-15T04:05:23;52363.31;;;-146.31;84.60
2036;BME280;23642;42.658;23.350;2023-02-15T04:07:50;52390.13;;;-146.31;84.98
2036;BME280;23642;42.658;23.350;2023-02-15T04:10:17;52379.81;;;-146.31;84.87
2036;BME280;23642;42.658;23.350;2023-02-15T04:13:01;52367.44;;;-146.31;84.67
2036;BME280;23642;42.658;23.350;2023-02-15T04:15:28;52373.63;;;-146.31;84.31
2036;BME280;23642;42.658;23.350;2023-02-15T04:18:12;52350.94;;;-146.31;84.59
2036;BME280;23642;42.658;23.350;2023-02-15T04:20:44;52363.31;;;-146.31;84.79
2036;BME280;23642;42.658;23.350;2023-02-15T04:23:28;52367.44;;;-146.31;84.77
2036;BME280;23642;42.658;23.350;2023-02-15T04:26:12;52379.81;;;-146.31;84.37
2036;BME280;23642;42.658;23.350;2023-02-15T04:28:39;52377.75;;;-146.31;84.74
2036;BME280;23642;42.658;23.350;2023-02-15T04:31:06;52355.06;;;-146.31;85.05
2036;BME280;23642;42.658;23.350;2023-02-15T04:33:32;52319.97;;;-146.31;84.84
2036;BME280;23642;42.658;23.350;2023-02-15T04:36:02;52342.69;;;-146.31;84.69
2036;BME280;23642;42.658;23.350;2023-02-15T04:38:29;52344.75;;;-146.31;84.77
2036;BME280;23642;42.658;23.350;2023-02-15T04:40:56;52348.88;;;-146.31;84.34
2036;BME280;23642;42.658;23.350;2023-02-15T04:43:23;52317.91;;;-146.31;84.80
2036;BME280;23642;42.658;23.350;2023-02-15T04:45:50;52348.88;;;-146.31;84.44
2036;BME280;23642;42.658;23.350;2023-02-15T04:48:17;52330.28;;;-146.31;84.82
2036;BME280;23642;42.658;23.350;2023-02-15T04:50:44;52324.09;;;-146.31;84.99
2036;BME280;23642;42.658;23.350;2023-02-15T04:53:12;52295.22;;;-146.31;85.44
2036;BME280;23642;42.658;23.350;2023-02-15T04:55:41;52311.72;;;-146.31;85.00
2036;BME280;23642;42.658;23.350;2023-02-15T04:58:08;52286.97;;;-146.31;84.83
2036;BME280;23642;42.658;23.350;2023-02-15T05:00:35;52322.03;;;-146.31;85.33
2036;BME280;23642;42.658;23.350;2023-02-15T05:03:01;52299.34;;;-146.31;85.07
2036;BME280;23642;42.658;23.350;2023-02-15T05:05:28;52291.09;;;-146.31;84.71
2036;BME280;23642;42.658;23.350;2023-02-15T05:07:55;52313.78;;;-146.31;84.57
2036;BME280;23642;42.658;23.350;2023-02-15T05:10:23;52280.78;;;-146.31;84.11
2036;BME280;23642;42.658;23.350;2023-02-15T05:12:49;52284.91;;;-146.31;84.79
2036;BME280;23642;42.658;23.350;2023-02-15T05:15:16;52305.53;;;-146.31;84.34
2036;BME280;23642;42.658;23.350;2023-02-15T05:17:43;52319.97;;;-146.31;84.29
2036;BME280;23642;42.658;23.350;2023-02-15T05:20:10;52342.69;;;-146.31;84.17
2036;BME280;23642;42.658;23.350;2023-02-15T05:22:37;52293.16;;;-146.31;84.29
2036;BME280;23642;42.658;23.350;2023-02-15T05:25:04;52293.16;;;-146.31;84.11
2036;BME280;23642;42.658;23.350;2023-02-15T05:27:49;52315.84;;;-146.31;84.25
2036;BME280;23642;42.658;23.350;2023-02-15T05:30:33;52317.91;;;-146.31;84.34
2036;BME280;23642;42.658;23.350;2023-02-15T05:32:59;52297.28;;;-146.31;83.77
2036;BME280;23642;42.658;23.350;2023-02-15T05:35:28;52326.16;;;-146.31;83.81
2036;BME280;23642;42.658;23.350;2023-02-15T05:37:55;52309.66;;;-146.31;84.24
2036;BME280;23642;42.658;23.350;2023-02-15T05:40:22;52303.47;;;-146.31;83.92
2036;BME280;23642;42.658;23.350;2023-02-15T05:42:52;52305.53;;;-146.31;83.89
2036;BME280;23642;42.658;23.350;2023-02-15T05:45:19;52291.09;;;-146.31;84.22
2036;BME280;23642;42.658;23.350;2023-02-15T05:47:46;52317.91;;;-146.31;83.98
2036;BME280;23642;42.658;23.350;2023-02-15T05:50:12;52297.28;;;-146.31;83.42
2036;BME280;23642;42.658;23.350;2023-02-15T05:52:39;52334.41;;;-146.31;83.90
2036;BME280;23642;42.658;23.350;2023-02-15T05:55:06;52299.34;;;-146.31;83.35
2036;BME280;23642;42.658;23.350;2023-02-15T05:57:34;52338.56;;;-146.31;82.75
2036;BME280;23642;42.658;23.350;2023-02-15T06:00:02;52338.56;;;-146.31;83.25
2036;BME280;23642;42.658;23.350;2023-02-15T06:02:29;52330.28;;;-146.31;82.37
2036;BME280;23642;42.658;23.350;2023-02-15T06:04:57;52338.56;;;-146.31;82.62
2036;BME280;23642;42.658;23.350;2023-02-15T06:07:24;52334.41;;;-146.31;82.24
2036;BME280;23642;42.658;23.350;2023-02-15T06:09:51;52330.28;;;-146.31;82.32
2036;BME280;23642;42.658;23.350;2023-02-15T06:12:17;52344.75;;;-146.31;82.07
2036;BME280;23642;42.658;23.350;2023-02-15T06:14:44;52367.44;;;-146.31;81.57
2036;BME280;23642;42.658;23.350;2023-02-15T06:17:12;52363.31;;;-146.31;81.59
2036;BME280;23642;42.658;23.350;2023-02-15T06:19:41;52379.81;;;-146.31;82.07
2036;BME280;23642;42.658;23.350;2023-02-15T06:22:07;52350.94;;;-146.31;82.42
2036;BME280;23642;42.658;23.350;2023-02-15T06:24:34;52340.63;;;-146.31;81.42
2036;BME280;23642;42.658;23.350;2023-02-15T06:27:01;52353.00;;;-146.31;81.39
2036;BME280;23642;42.658;23.350;2023-02-15T06:29:28;52379.81;;;-146.31;80.93
2036;BME280;23642;42.658;23.350;2023-02-15T06:31:54;52396.31;;;-146.31;79.77
2036;BME280;23642;42.658;23.350;2023-02-15T06:34:24;52383.94;;;-146.31;79.03
2036;BME280;23642;42.658;23.350;2023-02-15T06:36:51;52441.72;;;-146.31;79.22
2036;BME280;23642;42.658;23.350;2023-02-15T06:39:17;52427.28;;;-146.31;79.16
2036;BME280;23642;42.658;23.350;2023-02-15T06:41:44;52433.47;;;-146.31;78.90
2036;BME280;23642;42.658;23.350;2023-02-15T06:44:11;52443.78;;;-146.31;78.46
2036;BME280;23642;42.658;23.350;2023-02-15T06:46:37;52478.88;;;-146.31;78.82
2036;BME280;23642;42.658;23.350;2023-02-15T06:49:04;52503.63;;;-146.31;78.63
2036;BME280;23642;42.658;23.350;2023-02-15T06:51:32;52466.50;;;-146.31;78.58
2036;BME280;23642;42.658;23.350;2023-02-15T06:54:00;52485.06;;;-146.31;78.02
2036;BME280;23642;42.658;23.350;2023-02-15T06:56:26;52464.44;;;-146.31;78.02
2036;BME280;23642;42.658;23.350;2023-02-15T06:58:53;52495.38;;;-146.31;76.78
2036;BME280;23642;42.658;23.350;2023-02-15T07:01:20;52538.72;;;-146.31;76.72
2036;BME280;23642;42.658;23.350;2023-02-15T07:03:46;52520.16;;;-146.31;76.85
2036;BME280;23642;42.658;23.350;2023-02-15T07:06:13;52557.28;;;-146.31;76.09
2036;BME280;23642;42.658;23.350;2023-02-15T07:08:41;52573.81;;;-146.31;75.87
2036;BME280;23642;42.658;23.350;2023-02-15T07:11:08;52571.75;;;-146.31;75.58
2036;BME280;23642;42.658;23.350;2023-02-15T07:13:55;52615.06;;;-146.31;75.17
2036;BME280;23642;42.658;23.350;2023-02-15T07:16:22;52575.88;;;-146.31;75.00
2036;BME280;23642;42.658;23.350;2023-02-15T07:18:48;52625.41;;;-146.31;74.78
2036;BME280;23642;42.658;23.350;2023-02-15T07:21:15;52664.59;;;-146.31;74.34
2036;BME280;23642;42.658;23.350;2023-02-15T07:23:43;52668.72;;;-146.31;73.10
2036;BME280;23642;42.658;23.350;2023-02-15T07:26:10;52740.97;;;-146.31;72.59
2036;BME280;23642;42.658;23.350;2023-02-15T07:28:37;52773.97;;;-146.31;71.42
2036;BME280;23642;42.658;23.350;2023-02-15T07:31:06;52858.59;;;-146.31;71.54
2036;BME280;23642;42.658;23.350;2023-02-15T07:33:33;52844.16;;;-146.31;71.05
2036;BME280;23642;42.658;23.350;2023-02-15T07:36:03;52904.00;;;-146.31;70.37
2036;BME280;23642;42.658;23.350;2023-02-15T07:38:33;52860.66;;;-146.31;70.39
2036;BME280;23642;42.658;23.350;2023-02-15T07:41:02;52871.00;;;-146.31;69.05
2036;BME280;23642;42.658;23.350;2023-02-15T07:43:30;53013.41;;;-146.31;69.00
2036;BME280;23642;42.658;23.350;2023-02-15T07:45:59;52963.88;;;-146.31;69.28
2036;BME280;23642;42.658;23.350;2023-02-15T07:48:26;52974.19;;;-146.31;69.31
2036;BME280;23642;42.658;23.350;2023-02-15T07:50:53;52955.59;;;-146.31;68.26
2036;BME280;23642;42.658;23.350;2023-02-15T07:53:19;52899.88;;;-146.31;66.87
2036;BME280;23642;42.658;23.350;2023-02-15T07:55:46;52930.84;;;-146.31;66.98
2036;BME280;23642;42.658;23.350;2023-02-15T07:58:14;53110.41;;;-146.31;68.99
2036;BME280;23642;42.658;23.350;2023-02-15T08:00:41;53015.47;;;-146.31;69.36
2036;BME280;23642;42.658;23.350;2023-02-15T08:03:23;52883.38;;;-146.31;67.18
2036;BME280;23642;42.658;23.350;2023-02-15T08:05:56;52871.00;;;-146.31;67.56
2036;BME280;23642;42.658;23.350;2023-02-15T08:08:23;52881.31;;;-146.31;68.48
2036;BME280;23642;42.658;23.350;2023-02-15T08:11:00;52893.69;;;-146.31;68.70
2036;BME280;23642;42.658;23.350;2023-02-15T08:13:48;52833.84;;;-146.31;67.74
2036;BME280;23642;42.658;23.350;2023-02-15T08:16:22;52858.59;;;-146.31;66.49
2036;BME280;23642;42.658;23.350;2023-02-15T08:18:49;52893.69;;;-146.31;66.68
2036;BME280;23642;42.658;23.350;2023-02-15T08:21:19;52912.25;;;-146.31;68.12
2036;BME280;23642;42.658;23.350;2023-02-15T08:23:46;52848.28;;;-146.31;68.35
2036;BME280;23642;42.658;23.350;2023-02-15T08:26:13;52906.06;;;-146.31;68.08
2036;BME280;23642;42.658;23.350;2023-02-15T08:28:40;52932.91;;;-146.31;67.58
2036;BME280;23642;42.658;23.350;2023-02-15T08:31:17;52916.41;;;-146.31;67.89
2036;BME280;23642;42.658;23.350;2023-02-15T08:33:45;52961.81;;;-146.31;67.82
2036;BME280;23642;42.658;23.350;2023-02-15T08:36:13;52945.28;;;-146.31;67.40
2036;BME280;23642;42.658;23.350;2023-02-15T08:38:49;52945.28;;;-146.31;67.05
2036;BME280;23642;42.658;23.350;2023-02-15T08:41:20;52937.03;;;-146.31;65.96
2036;BME280;23642;42.658;23.350;2023-02-15T08:43:48;52955.59;;;-146.31;67.08
2036;BME280;23642;42.658;23.350;2023-02-15T08:46:18;52955.59;;;-146.31;68.58
2036;BME280;23642;42.658;23.350;2023-02-15T08:48:45;52986.56;;;-146.31;67.51
2036;BME280;23642;42.658;23.350;2023-02-15T08:51:18;52998.94;;;-146.31;67.40
2036;BME280;23642;42.658;23.350;2023-02-15T08:53:48;53011.34;;;-146.31;66.93
2036;BME280;23642;42.658;23.350;2023-02-15T08:56:16;52994.81;;;-146.31;66.43
2036;BME280;23642;42.658;23.350;2023-02-15T08:58:54;53054.69;;;-146.31;65.53
2036;BME280;23642;42.658;23.350;2023-02-15T09:01:26;53048.47;;;-146.31;64.93
2036;BME280;23642;42.658;23.350;2023-02-15T09:03:55;53031.97;;;-146.31;63.58
2036;BME280;23642;42.658;23.350;2023-02-15T09:06:23;53089.75;;;-146.31;62.61
2036;BME280;23642;42.658;23.350;2023-02-15T09:08:50;53085.63;;;-146.31;63.29
2036;BME280;23642;42.658;23.350;2023-02-15T09:11:19;53110.41;;;-146.31;62.60
2036;BME280;23642;42.658;23.350;2023-02-15T09:13:52;53085.63;;;-146.31;61.90
2036;BME280;23642;42.658;23.350;2023-02-15T09:16:22;53102.16;;;-146.31;61.30
2036;BME280;23642;42.658;23.350;2023-02-15T09:18:50;53172.31;;;-146.31;62.68
2036;BME280;23642;42.658;23.350;2023-02-15T09:21:18;53192.97;;;-146.31;62.30
2036;BME280;23642;42.658;23.350;2023-02-15T09:23:54;53141.38;;;-146.31;61.33
2036;BME280;23642;42.658;23.350;2023-02-15T09:26:25;53217.72;;;-146.31;61.92
2036;BME280;23642;42.658;23.350;2023-02-15T09:29:12;53238.38;;;-146.31;61.92
2036;BME280;23642;42.658;23.350;2023-02-15T09:32:09;53292.03;;;-146.31;62.88
2036;BME280;23642;42.658;23.350;2023-02-15T09:34:39;53182.66;;;-146.31;62.35
2036;BME280;23642;42.658;23.350;2023-02-15T09:37:06;53234.25;;;-146.31;61.26
2036;BME280;23642;42.658;23.350;2023-02-15T09:39:40;53277.59;;;-146.31;61.01
2036;BME280;23642;42.658;23.350;2023-02-15T09:42:34;53366.34;;;-146.31;61.08
2036;BME280;23642;42.658;23.350;2023-02-15T09:45:24;53300.31;;;-146.31;61.21
2036;BME280;23642;42.658;23.350;2023-02-15T09:48:25;53281.72;;;-146.31;59.64
2036;BME280;23642;42.658;23.350;2023-02-15T09:51:22;53308.56;;;-146.31;60.05
2036;BME280;23642;42.658;23.350;2023-02-15T09:56:52;53279.66;;;-146.31;59.37
2036;BME280;23642;42.658;23.350;2023-02-15T09:59:36;53294.09;;;-146.31;59.19
2036;BME280;23642;42.658;23.350;2023-02-15T10:02:41;53240.44;;;-146.31;58.76
2036;BME280;23642;42.658;23.350;2023-02-15T10:05:34;53349.84;;;-146.31;59.98
2036;BME280;23642;42.658;23.350;2023-02-15T10:08:27;53316.81;;;-146.31;60.73
2036;BME280;23642;42.658;23.350;2023-02-15T10:11:13;53325.06;;;-146.31;59.86
2036;BME280;23642;42.658;23.350;2023-02-15T10:17:23;53347.78;;;-146.31;61.32
2036;BME280;23642;42.658;23.350;2023-02-15T10:20:04;53289.97;;;-146.31;59.48
2036;BME280;23642;42.658;23.350;2023-02-15T10:22:59;53331.25;;;-146.31;58.58
2036;BME280;23642;42.658;23.350;2023-02-15T10:26:36;53349.84;;;-146.31;59.77
2036;BME280;23642;42.658;23.350;2023-02-15T10:28:43;53409.69;;;-146.31;61.60
2036;BME280;23642;42.658;23.350;2023-02-15T10:31:27;53382.88;;;-146.31;62.00
2036;BME280;23642;42.658;23.350;2023-02-15T10:34:27;53420.03;;;-146.31;62.93
2036;BME280;23642;42.658;23.350;2023-02-15T10:37:17;53292.03;;;-146.31;62.53
2036;BME280;23642;42.658;23.350;2023-02-15T10:40:07;53310.63;;;-146.31;63.11
2036;BME280;23642;42.658;23.350;2023-02-15T10:42:54;53333.31;;;-146.31;62.44
2036;BME280;23642;42.658;23.350;2023-02-15T10:45:36;53325.06;;;-146.31;62.16
2036;BME280;23642;42.658;23.350;2023-02-15T10:48:29;53376.69;;;-146.31;61.33
2036;BME280;23642;42.658;23.350;2023-02-15T10:51:00;53399.38;;;-146.31;61.30
2036;BME280;23642;42.658;23.350;2023-02-15T10:53:52;53275.53;;;-146.31;60.28
2036;BME280;23642;42.658;23.350;2023-02-15T10:56:31;53356.03;;;-146.31;60.64
2036;BME280;23642;42.658;23.350;2023-02-15T10:59:23;53362.22;;;-146.31;60.47
2036;BME280;23642;42.658;23.350;2023-02-15T11:01:54;53374.59;;;-146.31;62.13
2036;BME280;23642;42.658;23.350;2023-02-15T11:04:45;53302.38;;;-146.31;63.28
2036;BME280;23642;42.658;23.350;2023-02-15T11:07:19;53300.31;;;-146.31;62.46
2036;BME280;23642;42.658;23.350;2023-02-15T11:09:51;53306.50;;;-146.31;61.99
2036;BME280;23642;42.658;23.350;2023-02-15T11:12:24;53281.72;;;-146.31;60.98
2036;BME280;23642;42.658;23.350;2023-02-15T11:14:58;53318.88;;;-146.31;61.66
2036;BME280;23642;42.658;23.350;2023-02-15T11:17:35;53337.47;;;-146.31;62.71
2036;BME280;23642;42.658;23.350;2023-02-15T11:20:14;53296.16;;;-146.31;64.41
2036;BME280;23642;42.658;23.350;2023-02-15T11:22:49;53267.28;;;-146.31;63.93
2036;BME280;23642;42.658;23.350;2023-02-15T11:25:23;53333.31;;;-146.31;63.34
2036;BME280;23642;42.658;23.350;2023-02-15T11:27:52;53287.91;;;-146.31;63.72
2036;BME280;23642;42.658;23.350;2023-02-15T11:30:23;53316.81;;;-146.31;64.40
2036;BME280;23642;42.658;23.350;2023-02-15T11:32:53;53318.88;;;-146.31;64.20
2036;BME280;23642;42.658;23.350;2023-02-15T11:35:34;53287.91;;;-146.31;63.92
2036;BME280;23642;42.658;23.350;2023-02-15T11:38:10;53285.84;;;-146.31;63.75
2036;BME280;23642;42.658;23.350;2023-02-15T11:40:45;53259.03;;;-146.31;62.53
2036;BME280;23642;42.658;23.350;2023-02-15T11:43:17;53320.94;;;-146.31;63.26
2036;BME280;23642;42.658;23.350;2023-02-15T11:45:47;53314.75;;;-146.31;64.38
2036;BME280;23642;42.658;23.350;2023-02-15T11:48:15;53312.69;;;-146.31;64.13
2036;BME280;23642;42.658;23.350;2023-02-15T11:50:44;53318.88;;;-146.31;64.53
2036;BME280;23642;42.658;23.350;2023-02-15T11:53:12;53292.03;;;-146.31;64.55
2036;BME280;23642;42.658;23.350;2023-02-15T11:55:41;53298.25;;;-146.31;63.79
2036;BME280;23642;42.658;23.350;2023-02-15T11:58:21;53261.09;;;-146.31;63.38
2036;BME280;23642;42.658;23.350;2023-02-15T12:00:52;53238.38;;;-146.31;63.14
2036;BME280;23642;42.658;23.350;2023-02-15T12:03:23;53279.66;;;-146.31;62.43
2036;BME280;23642;42.658;23.350;2023-02-15T12:05:58;53292.03;;;-146.31;63.05
2036;BME280;23642;42.658;23.350;2023-02-15T12:08:36;53285.84;;;-146.31;62.68
2036;BME280;23642;42.658;23.350;2023-02-15T12:11:12;53294.09;;;-146.31;62.74
2036;BME280;23642;42.658;23.350;2023-02-15T12:13:55;53325.06;;;-146.31;63.23
2036;BME280;23642;42.658;23.350;2023-02-15T12:16:23;53283.78;;;-146.31;63.65
2036;BME280;23642;42.658;23.350;2023-02-15T12:18:52;53298.25;;;-146.31;62.87
2036;BME280;23642;42.658;23.350;2023-02-15T12:21:26;53296.16;;;-146.31;63.53
2036;BME280;23642;42.658;23.350;2023-02-15T12:23:56;53320.94;;;-146.31;62.17
2036;BME280;23642;42.658;23.350;2023-02-15T12:26:25;53281.72;;;-146.31;62.25
2036;BME280;23642;42.658;23.350;2023-02-15T12:28:56;53296.16;;;-146.31;61.62
2036;BME280;23642;42.658;23.350;2023-02-15T12:31:30;53304.44;;;-146.31;61.80
2036;BME280;23642;42.658;23.350;2023-02-15T12:34:00;53277.59;;;-146.31;61.87
2036;BME280;23642;42.658;23.350;2023-02-15T12:36:30;53267.28;;;-146.31;61.70
2036;BME280;23642;42.658;23.350;2023-02-15T12:39:18;53308.56;;;-146.31;61.57
2036;BME280;23642;42.658;23.350;2023-02-15T12:41:57;53304.44;;;-146.31;62.38
2036;BME280;23642;42.658;23.350;2023-02-15T12:44:29;53279.66;;;-146.31;62.05
2036;BME280;23642;42.658;23.350;2023-02-15T12:46:58;53277.59;;;-146.31;61.62
2036;BME280;23642;42.658;23.350;2023-02-15T12:49:26;53292.03;;;-146.31;61.46
2036;BME280;23642;42.658;23.350;2023-02-15T12:51:55;53238.38;;;-146.31;61.25
2036;BME280;23642;42.658;23.350;2023-02-15T12:54:33;53279.66;;;-146.31;60.30
2036;BME280;23642;42.658;23.350;2023-02-15T12:57:15;53279.66;;;-146.31;60.74
2036;BME280;23642;42.658;23.350;2023-02-15T12:59:57;53246.63;;;-146.31;61.07
2036;BME280;23642;42.658;23.350;2023-02-15T13:02:31;53302.38;;;-146.31;60.67
2036;BME280;23642;42.658;23.350;2023-02-15T13:05:14;53289.97;;;-146.31;60.61
2036;BME280;23642;42.658;23.350;2023-02-15T13:07:45;53294.09;;;-146.31;60.39
2036;BME280;23642;42.658;23.350;2023-02-15T13:10:22;53279.66;;;-146.31;60.75
2036;BME280;23642;42.658;23.350;2023-02-15T13:12:54;53296.16;;;-146.31;60.06
2036;BME280;23642;42.658;23.350;2023-02-15T13:15:31;53312.69;;;-146.31;59.79
2036;BME280;23642;42.658;23.350;2023-02-15T13:17:59;53364.28;;;-146.31;60.30